createdAt,value
2023-03-20T00:10:11.128Z,30.70
2023-03-20T00:22:08.819Z,26.90
2023-03-20T00:34:09.253Z,28.80
2023-03-20T00:46:09.725Z,28.60
2023-03-20T00:58:10.163Z,29.10
2023-03-20T01:10:12.811Z,32.80
2023-03-20T01:22:11.070Z,27.30
2023-03-20T01:34:14.216Z,27.80
2023-03-20T01:46:12.021Z,31.00
2023-03-20T01:58:12.420Z,30.00
2023-03-20T02:10:12.857Z,27.70
2023-03-20T02:22:13.315Z,31.40
2023-03-20T02:34:13.769Z,27.70
2023-03-20T02:46:14.349Z,26.90
2023-03-20T02:58:16.875Z,28.10
2023-03-20T03:10:15.323Z,27.40
2023-03-20T03:22:15.579Z,28.90
2023-03-20T03:34:16.027Z,25.00
2023-03-20T03:46:16.497Z,27.20
2023-03-20T03:58:16.950Z,28.00
2023-03-20T04:10:17.394Z,27.20
2023-03-20T04:22:18.035Z,27.60
2023-03-20T04:34:18.363Z,27.60
2023-03-20T04:46:18.811Z,28.00
2023-03-20T04:58:19.211Z,29.80
2023-03-20T05:10:19.663Z,32.30
2023-03-20T05:22:20.095Z,30.50
2023-03-20T05:34:20.590Z,28.00
2023-03-20T05:46:21.021Z,32.00
2023-03-20T05:58:21.457Z,36.50
2023-03-20T06:10:24.615Z,32.20
2023-03-20T06:22:25.075Z,36.60
2023-03-20T06:34:22.812Z,45.40
2023-03-20T06:46:23.291Z,35.80
2023-03-20T06:58:23.705Z,34.70
2023-03-20T07:10:24.172Z,31.90
2023-03-20T07:22:24.609Z,29.90
2023-03-20T07:34:25.073Z,30.00
2023-03-20T07:46:25.738Z,30.20
2023-03-20T07:58:26.031Z,27.70
2023-03-20T08:10:26.511Z,27.50
2023-03-20T08:22:26.886Z,24.50
2023-03-20T08:34:27.361Z,24.50
2023-03-20T08:46:27.899Z,24.40
2023-03-20T08:58:28.229Z,23.10
2023-03-20T09:10:28.703Z,17.10
2023-03-20T09:22:29.163Z,16.00
2023-03-20T09:34:29.657Z,12.50
2023-03-20T09:46:30.096Z,10.10
2023-03-20T09:58:30.503Z,6.40
2023-03-20T10:10:30.936Z,6.20
2023-03-20T10:22:31.451Z,4.40
2023-03-20T10:34:31.841Z,5.50
2023-03-20T10:46:32.384Z,6.70
2023-03-20T10:58:32.788Z,5.80
2023-03-20T11:10:33.549Z,6.40
2023-03-20T11:22:33.689Z,4.10
2023-03-20T11:34:34.265Z,2.50
2023-03-20T11:46:34.560Z,3.50
2023-03-20T11:58:35.059Z,2.40
2023-03-20T12:10:35.842Z,4.00
2023-03-20T12:22:35.996Z,1.90
2023-03-20T12:34:36.427Z,2.70
2023-03-20T12:46:36.921Z,3.20
2023-03-20T12:58:37.329Z,3.40
2023-03-20T13:10:38.186Z,2.80
2023-03-20T13:22:38.279Z,3.30
2023-03-20T13:34:38.750Z,6.30
2023-03-20T13:46:39.234Z,5.10
2023-03-20T13:58:39.653Z,2.90
2023-03-20T14:10:40.380Z,2.40
2023-03-20T14:22:40.501Z,3.60
2023-03-20T14:34:40.969Z,2.50
2023-03-20T14:46:41.456Z,4.20
2023-03-20T14:58:41.893Z,3.10
2023-03-20T15:10:42.369Z,2.50
2023-03-20T15:22:42.796Z,3.10
2023-03-20T15:34:43.258Z,2.40
2023-03-20T15:46:43.714Z,4.50
2023-03-20T15:58:44.188Z,5.30
2023-03-20T16:10:44.608Z,6.80
2023-03-20T16:22:45.086Z,9.00
2023-03-20T16:34:45.512Z,23.10
2023-03-20T16:46:46.010Z,13.20
2023-03-20T16:58:46.433Z,11.50
2023-03-20T17:10:47.048Z,13.70
2023-03-20T17:22:47.361Z,16.50
2023-03-20T17:34:47.849Z,16.90
2023-03-20T17:46:57.959Z,18.00
2023-03-20T17:58:48.721Z,22.00
2023-03-20T18:10:49.163Z,43.70
2023-03-20T18:22:49.655Z,32.90
2023-03-20T18:34:50.048Z,33.90
2023-03-20T18:46:50.766Z,37.00
2023-03-20T18:58:50.973Z,51.40
2023-03-20T19:10:51.436Z,18.20
2023-03-20T19:22:51.869Z,33.00
2023-03-20T19:35:38.908Z,22.90
2023-03-20T19:46:52.795Z,25.40
2023-03-20T19:58:53.289Z,24.50
2023-03-20T20:10:56.906Z,21.40
2023-03-20T20:22:54.333Z,25.00
2023-03-20T20:46:55.055Z,24.20
2023-03-20T20:58:59.709Z,21.30
2023-03-20T21:10:55.958Z,23.90
2023-03-20T21:22:56.403Z,25.00
2023-03-20T21:34:56.899Z,23.50
2023-03-20T21:47:50.809Z,16.20
2023-03-20T22:11:45.011Z,17.40
2023-03-20T22:46:59.547Z,13.90
2023-03-20T22:59:00.035Z,12.40
2023-03-20T23:11:02.762Z,18.40
2023-03-20T23:23:00.972Z,13.60
2023-03-20T23:35:03.660Z,14.00
2023-03-20T23:47:08.356Z,15.00
2023-03-20T23:59:11.452Z,15.90
